createdAt,value
2023-04-25T14:52:29.489Z,8.63
2023-04-25T14:54:58.625Z,6.43
2023-04-25T14:57:27.850Z,6.65
2023-04-25T14:59:57.269Z,7.72
2023-04-25T15:02:27.301Z,8.10
2023-04-25T15:04:57.232Z,8.60
2023-04-25T15:07:26.975Z,8.43
2023-04-25T15:09:57.878Z,7.43
2023-04-25T15:12:29.350Z,8.40
2023-04-25T15:14:58.653Z,10.18
2023-04-25T15:17:27.936Z,8.23
2023-04-25T15:19:56.521Z,11.02
2023-04-25T15:22:26.020Z,9.50
2023-04-25T15:24:57.315Z,11.03
2023-04-25T15:27:28.247Z,8.02
2023-04-25T15:29:57.592Z,9.48
2023-04-25T15:32:26.776Z,8.43
2023-04-25T15:34:55.467Z,7.30
2023-04-25T15:37:24.488Z,10.35
2023-04-25T15:40:07.489Z,8.68
2023-04-25T15:42:36.833Z,7.25
2023-04-25T15:45:06.982Z,11.20
2023-04-25T15:47:37.069Z,8.63
2023-04-25T15:50:08.489Z,8.30
2023-04-25T15:52:38.101Z,10.20
2023-04-25T15:55:09.496Z,9.43
2023-04-25T15:57:39.078Z,11.60
2023-04-25T16:00:11.316Z,9.20
2023-04-25T16:02:43.805Z,9.07
2023-04-25T16:05:14.745Z,10.02
2023-04-25T16:07:44.648Z,11.45
2023-04-25T16:10:17.340Z,9.25
2023-04-25T16:12:48.161Z,9.25
2023-04-25T16:15:17.384Z,8.70
2023-04-25T16:17:46.607Z,8.35
2023-04-25T16:20:15.791Z,8.93
2023-04-25T16:22:44.912Z,9.18
2023-04-25T16:25:15.275Z,10.20
2023-04-25T16:27:44.570Z,10.07
2023-04-25T16:30:14.229Z,12.20
2023-04-25T16:32:44.845Z,12.50
2023-04-25T16:35:14.733Z,9.98
2023-04-25T16:37:45.006Z,8.73
2023-04-25T16:40:15.703Z,8.87
2023-04-25T16:42:44.619Z,10.15
2023-04-25T16:45:14.901Z,9.77
2023-04-25T16:47:43.787Z,10.23
2023-04-25T16:50:14.457Z,11.15
2023-04-25T16:52:46.049Z,9.20
2023-04-25T16:55:16.434Z,11.50
2023-04-25T16:57:45.494Z,9.45
2023-04-25T17:00:15.917Z,8.90
2023-04-25T17:02:45.173Z,8.48
2023-04-25T17:05:14.344Z,9.20
2023-04-25T17:07:42.877Z,11.95
2023-04-25T17:10:13.312Z,12.07
2023-04-25T17:15:12.950Z,9.00
2023-04-25T17:17:42.110Z,9.05
2023-04-25T17:20:11.802Z,9.10
2023-04-25T17:22:40.397Z,15.35
2023-04-25T17:25:11.130Z,12.15
2023-04-25T17:27:40.279Z,8.52
2023-04-25T17:30:12.732Z,9.63
2023-04-25T17:32:41.692Z,8.13
2023-04-25T17:35:11.400Z,10.75
2023-04-25T17:37:40.996Z,10.63
2023-04-25T17:40:12.308Z,9.68
2023-04-25T17:42:41.877Z,9.80
2023-04-25T17:45:13.253Z,11.57
2023-04-25T17:47:42.631Z,9.55
2023-04-25T17:50:12.745Z,10.88
2023-04-25T17:52:41.517Z,12.80
2023-04-25T17:55:11.345Z,15.85
2023-04-25T17:57:40.471Z,13.50
2023-04-25T18:00:13.219Z,13.15
2023-04-25T18:02:42.303Z,16.15
2023-04-25T18:05:11.649Z,12.93
2023-04-25T18:07:40.204Z,11.65
2023-04-25T18:10:11.870Z,12.60
2023-04-25T18:12:41.301Z,11.55
2023-04-25T18:15:12.674Z,12.10
2023-04-25T18:17:41.757Z,10.82
2023-04-25T18:20:13.964Z,11.73
2023-04-25T18:22:43.551Z,13.77
2023-04-25T18:25:13.667Z,13.02
2023-04-25T18:30:14.126Z,11.52
2023-04-25T18:32:43.435Z,14.18
2023-04-25T18:35:12.491Z,14.95
2023-04-25T18:37:42.374Z,11.80
2023-04-25T18:40:14.169Z,12.45
2023-04-25T18:42:43.396Z,13.65
2023-04-25T18:45:13.977Z,12.93
2023-04-25T18:47:42.968Z,14.15
2023-04-25T18:50:13.003Z,12.88
2023-04-25T18:52:41.988Z,14.30
2023-04-25T18:55:11.702Z,15.40
2023-04-25T18:57:40.789Z,20.98
2023-04-25T19:00:11.395Z,14.40
2023-04-25T19:02:42.055Z,19.58
2023-04-25T19:05:11.676Z,17.15
2023-04-25T19:07:40.650Z,16.27
2023-04-25T19:10:10.432Z,16.50
2023-04-25T19:12:39.504Z,18.20
2023-04-25T19:15:09.986Z,15.20
2023-04-25T19:17:38.956Z,16.20
2023-04-25T19:20:11.695Z,17.95
2023-04-25T19:22:40.250Z,17.17
2023-04-25T19:25:11.137Z,17.25
2023-04-25T19:27:40.615Z,16.90
2023-04-25T19:30:10.940Z,16.65
2023-04-25T19:32:40.210Z,19.30
2023-04-25T19:35:12.007Z,20.65
2023-04-25T19:37:46.292Z,16.80
2023-04-25T19:40:16.475Z,17.05
2023-04-25T19:42:45.548Z,16.85
2023-04-25T19:45:14.796Z,18.75
2023-04-25T19:47:43.923Z,17.33
2023-04-25T19:50:14.551Z,17.70
2023-04-25T19:52:43.127Z,18.38
2023-04-25T19:55:12.250Z,21.60
2023-04-25T19:57:41.391Z,17.02
2023-04-25T20:00:12.975Z,20.90
2023-04-25T20:02:42.308Z,17.00
2023-04-25T20:05:12.380Z,17.33
2023-04-25T20:07:42.603Z,17.33
2023-04-25T20:10:14.153Z,18.67
2023-04-25T20:12:43.128Z,18.90
2023-04-25T20:15:12.744Z,19.35
2023-04-25T20:17:42.673Z,25.58
2023-04-25T20:20:13.055Z,17.30
2023-04-25T20:22:43.056Z,19.17
2023-04-25T20:25:13.625Z,20.08
2023-04-25T20:27:42.524Z,20.40
2023-04-25T20:30:13.719Z,16.70
2023-04-25T20:32:42.960Z,17.60
2023-04-25T20:35:12.705Z,19.02
2023-04-25T20:37:42.688Z,18.13
2023-04-25T20:40:12.034Z,18.13
2023-04-25T20:42:40.977Z,16.00
2023-04-25T20:45:13.419Z,17.42
2023-04-25T20:47:42.926Z,17.70
2023-04-25T20:50:12.532Z,20.38
2023-04-25T20:52:43.289Z,20.85
2023-04-25T20:55:13.561Z,19.95
2023-04-25T20:57:42.474Z,23.92
2023-04-25T21:00:17.900Z,25.35
2023-04-25T21:02:47.796Z,23.15
2023-04-25T21:05:16.911Z,25.67
2023-04-25T21:07:47.011Z,27.25
2023-04-25T21:10:16.117Z,21.80
2023-04-25T21:12:49.601Z,20.67
2023-04-25T21:15:20.527Z,27.25
2023-04-25T21:17:49.673Z,22.10
2023-04-25T21:20:20.801Z,24.20
2023-04-25T21:22:54.177Z,24.95
2023-04-25T21:25:31.113Z,26.27
2023-04-25T21:28:02.445Z,22.08
2023-04-25T21:30:31.681Z,25.85
2023-04-25T21:33:00.734Z,26.02
2023-04-25T21:35:29.642Z,23.90
2023-04-25T21:37:59.870Z,24.95
2023-04-25T21:40:28.687Z,27.50
2023-04-25T21:42:57.599Z,32.05
2023-04-25T21:45:26.613Z,26.30
2023-04-25T21:47:55.514Z,27.48
2023-04-25T21:50:24.700Z,28.10
2023-04-25T21:52:54.216Z,28.23
2023-04-25T21:55:24.588Z,31.33
2023-04-25T21:57:53.456Z,30.30
2023-04-25T22:00:24.877Z,30.30
2023-04-25T22:02:55.517Z,24.15
2023-04-25T22:07:57.151Z,26.00
2023-04-25T22:10:27.489Z,27.27
2023-04-25T22:15:24.990Z,18.13
2023-04-25T22:17:55.630Z,18.13
2023-04-25T22:20:26.647Z,20.55
2023-04-25T22:22:56.597Z,19.10
2023-04-25T22:25:27.106Z,16.60
2023-04-25T22:27:57.355Z,16.17
2023-04-25T22:32:54.916Z,18.00
2023-04-25T22:35:24.180Z,18.42
2023-04-25T22:37:53.235Z,18.02
2023-04-25T22:40:22.223Z,13.55
2023-04-25T22:42:52.496Z,18.90
2023-04-25T22:45:21.928Z,16.15
2023-04-25T22:47:50.823Z,16.92
2023-04-25T22:50:20.382Z,15.52
2023-04-25T22:52:49.218Z,17.67
2023-04-25T22:55:18.110Z,17.20
2023-04-25T22:57:46.925Z,14.55
2023-04-25T23:00:20.194Z,17.15
2023-04-25T23:02:50.441Z,18.63
2023-04-25T23:05:20.046Z,14.23
2023-04-25T23:07:48.509Z,11.93
2023-04-25T23:10:18.771Z,15.38
2023-04-25T23:12:47.621Z,11.98
2023-04-25T23:15:18.083Z,14.73
2023-04-25T23:17:47.126Z,15.05
2023-04-25T23:20:16.195Z,13.32
2023-04-25T23:22:45.060Z,14.43
2023-04-25T23:25:14.302Z,18.08
2023-04-25T23:27:43.186Z,12.73
2023-04-25T23:30:12.812Z,13.30
2023-04-25T23:32:43.359Z,13.45
2023-04-25T23:35:12.511Z,14.10
2023-04-25T23:37:41.485Z,13.52
2023-04-25T23:40:12.295Z,13.07
2023-04-25T23:42:42.227Z,13.77
2023-04-25T23:45:14.424Z,12.38
2023-04-25T23:47:44.837Z,12.90
2023-04-25T23:50:13.956Z,18.65
2023-04-25T23:52:42.432Z,12.02
2023-04-25T23:55:11.439Z,14.55
2023-04-25T23:57:40.204Z,15.77
